Meteo Giornale » Osservazioni meteo Svizzera » Samedan

ore: 14:50 - Osservazioni Meteo Samedan
Lat. 46° 32' N Lon. 9° 53' E Alt. 1706 metri s.l.m.

sereno Europe/Zurich

19 °C

Sereno

Temp. 24 Ore

1 °C

19 °C

Nord/Nord-Est

11.1 Km/h

Dew point 7 °C

Umidità 45 %

Visibilità  10 Km

Il sole sorge alle ore 06:05

Il sole tramonta alle ore 20:47

Data e Ora Cielo e Fenomeni T °C DP °C Um. % Pres. hPa Vis. km Vento km/h
Oggi h: 14:50 sereno Sereno 19 7 45 1019 10 N/NE 11.1
Oggi h: 14:20 sereno Sereno 18 6 45 1019 10 N/NE 13
Oggi h: 13:50 sereno Sereno 17 6 48 1019 10 N/NE 11.1
Oggi h: 13:20 sereno Sereno 17 7 51 1019 10 N/NE 7.4
Oggi h: 12:50 sereno Sereno 15 5 51 1020 10 N 11.1
Oggi h: 12:20 poco_nuvoloso Poco Nuvoloso 13 3 50 1020 10 N 9.3
Oggi h: 11:50 poco_nuvoloso Poco Nuvoloso 13 6 62 1020 10 N/NE 9.3
Oggi h: 11:20 poco_nuvoloso Poco Nuvoloso 12 5 62 1020 10 N 3.7
Oggi h: 10:50 poco_nuvoloso Poco Nuvoloso 9 3 66 1020 10 N 3.7
Oggi h: 10:20 poco_nuvoloso Poco Nuvoloso 8 4 75 1021 10 N 5.5
Oggi h: 09:50 poco_nuvoloso Poco Nuvoloso 7 4 81 1021 10 N 5.5
Oggi h: 09:20 nuvoloso Nuvoloso 6 3 81 1021 10 N 5.5
Oggi h: 08:50 nuvoloso Nuvoloso 6 4 86 1021 10 N 3.7
Oggi h: 08:20 molto_nuvoloso Molto Nuvoloso 5 3 86 1021 10 E/NE 7.4
Oggi h: 07:50 molto_nuvoloso Molto Nuvoloso 4 4 100 1021 10 N 3.7
Oggi h: 07:20 coperto Coperto 3 3 100 1021 10 N 1.8
Oggi h: 06:50 molto_nuvoloso Molto Nuvoloso 3 3 100 1021 10 N 1.8
Oggi h: 06:20 molto_nuvoloso Molto Nuvoloso 3 3 100 1021 10 N 3.7
Oggi h: 05:50 molto_nuvoloso Molto Nuvoloso 3 3 100 1020 10 N 3.7
Oggi h: 05:20 sereno Sereno 2 2 100 1020 10 N 3.7
Oggi h: 04:50 sereno Sereno 3 3 100 1020 10 N/NE 7.4
Oggi h: 04:20 poco_nuvoloso Poco Nuvoloso 3 3 100 1020 10 N 3.7
Oggi h: 03:50 sereno Sereno 1 1 100 1020 10 N 3.7
Oggi h: 03:20 sereno Sereno 3 3 100 1020 10 N 1.8
Oggi h: 02:50 poco_nuvoloso Poco Nuvoloso 3 3 100 1020 10 N 3.7
Oggi h: 02:20 poco_nuvoloso Poco Nuvoloso 5 4 93 1020 10 N 5.5
Oggi h: 01:50 sereno Sereno 5 4 93 1020 10 N 3.7
Oggi h: 01:20 poco_nuvoloso Poco Nuvoloso 5 4 93 1020 10 N 11.1
Oggi h: 00:50 poco_nuvoloso Poco Nuvoloso 6 4 86 1020 10 NE 11.1
Oggi h: 00:20 molto_nuvoloso Molto Nuvoloso 6 4 86 1020 10 N/NE 18.5
Ieri h: 23:50 molto_nuvoloso Molto Nuvoloso 6 5 93 1020 10 N 13
Ieri h: 23:20 coperto Coperto 7 4 81 1020 10 N/NE 13
Ieri h: 22:50 molto_nuvoloso Molto Nuvoloso 7 5 87 1020 10 N/NE 16.7
Ieri h: 22:20 molto_nuvoloso Molto Nuvoloso 7 4 81 1020 10 N/NE 13
Ieri h: 21:50 molto_nuvoloso Molto Nuvoloso 7 3 75 1020 10 E/NE 13
Ieri h: 21:20 molto_nuvoloso Molto Nuvoloso 7 3 75 1020 10 N/NE 11.1
Ieri h: 20:50 coperto Coperto 8 3 70 1020 10 NE 14.8
Ieri h: 20:20 molto_nuvoloso Molto Nuvoloso 8 3 70 1019 10 N/NE 14.8
Ieri h: 19:50 molto_nuvoloso Molto Nuvoloso 8 4 75 1019 10 N/NE 13
Ieri h: 19:20 molto_nuvoloso Molto Nuvoloso 8 3 70 1018 10 E/NE 16.7
Ieri h: 18:50 molto_nuvoloso Molto Nuvoloso 9 4 70 1018 10 NE 13
Ieri h: 18:20 molto_nuvoloso Molto Nuvoloso 9 3 66 1018 10 N 9.3
Ieri h: 17:50 molto_nuvoloso Molto Nuvoloso 10 5 71 1017 10 NE 16.7
Ieri h: 17:20 coperto Coperto 10 3 61 1017 10 N/NO 16.7
Ieri h: 16:50 molto_nuvoloso Molto Nuvoloso 12 4 57 1017 10 N/NO 16.7
Ieri h: 16:20 molto_nuvoloso Molto Nuvoloso 11 4 61 1017 10 N 14.8
Ieri h: 15:50 molto_nuvoloso Molto Nuvoloso 11 4 61 1016 10 NE 22.2